createdAt,value
2018-01-19T00:02:00.796Z,3.60
2018-01-19T00:04:27.759Z,3.50
2018-01-19T00:06:53.992Z,3.50
2018-01-19T00:09:20.212Z,3.50
2018-01-19T00:11:47.171Z,3.40
2018-01-19T00:14:13.377Z,3.40
2018-01-19T00:16:40.379Z,3.40
2018-01-19T00:19:06.583Z,3.30
2018-01-19T00:21:32.813Z,3.30
2018-01-19T00:23:59.012Z,3.40
2018-01-19T00:26:25.985Z,3.40
2018-01-19T00:28:52.244Z,3.30
2018-01-19T00:31:18.459Z,3.30
2018-01-19T00:33:44.691Z,3.30
2018-01-19T00:36:10.906Z,3.30
2018-01-19T00:38:37.128Z,3.30
2018-01-19T00:41:03.331Z,3.30
2018-01-19T00:43:30.328Z,3.30
2018-01-19T00:45:56.532Z,3.30
2018-01-19T00:48:22.764Z,3.30
2018-01-19T00:50:49.000Z,3.20
2018-01-19T00:53:15.226Z,3.20
2018-01-19T00:55:41.456Z,3.30
2018-01-19T00:58:07.684Z,3.30
2018-01-19T01:00:33.983Z,3.30
2018-01-19T01:03:00.204Z,3.30
2018-01-19T01:05:26.473Z,3.30
2018-01-19T01:07:52.708Z,3.30
2018-01-19T01:10:19.012Z,3.30
2018-01-19T01:12:46.002Z,3.30
2018-01-19T01:15:12.223Z,3.20
2018-01-19T01:17:38.416Z,3.20
2018-01-19T01:20:04.657Z,3.20
2018-01-19T01:22:31.637Z,3.20
2018-01-19T01:24:57.828Z,3.20
2018-01-19T01:27:24.803Z,3.20
2018-01-19T01:29:51.024Z,3.20
2018-01-19T01:32:17.252Z,3.20
2018-01-19T01:34:43.440Z,3.20
2018-01-19T01:37:09.669Z,3.20
2018-01-19T01:39:35.918Z,3.20
2018-01-19T01:42:02.124Z,3.20
2018-01-19T01:44:28.359Z,3.20
2018-01-19T01:46:54.564Z,3.20
2018-01-19T01:49:20.792Z,3.20
2018-01-19T01:51:46.989Z,3.20
2018-01-19T01:54:13.231Z,3.20
2018-01-19T01:56:39.508Z,3.20
2018-01-19T01:59:05.723Z,3.20
2018-01-19T02:01:31.972Z,3.20
2018-01-19T02:03:58.172Z,3.20
2018-01-19T02:06:24.408Z,3.30
2018-01-19T02:08:50.633Z,3.20
2018-01-19T02:11:16.876Z,3.20
2018-01-19T02:13:43.108Z,3.20
2018-01-19T02:16:09.360Z,3.20
2018-01-19T02:18:35.564Z,3.20
2018-01-19T02:21:01.832Z,3.20
2018-01-19T02:23:28.784Z,3.20
2018-01-19T02:25:55.792Z,3.20
2018-01-19T02:28:22.043Z,3.10
2018-01-19T02:30:48.239Z,3.20
2018-01-19T02:33:14.460Z,3.30
2018-01-19T02:35:40.664Z,3.30
2018-01-19T02:38:06.895Z,3.40
2018-01-19T02:40:33.104Z,3.40
2018-01-19T02:43:07.164Z,3.50
2018-01-19T02:45:33.408Z,3.50
2018-01-19T02:47:59.719Z,3.50
2018-01-19T02:50:25.947Z,3.50
2018-01-19T02:52:52.151Z,3.50
2018-01-19T02:55:19.124Z,3.50
2018-01-19T02:57:45.323Z,3.40
2018-01-19T03:00:12.328Z,3.30
2018-01-19T03:02:38.528Z,3.30
2018-01-19T03:05:04.781Z,3.30
2018-01-19T03:07:31.002Z,3.30
2018-01-19T03:09:57.251Z,3.30
2018-01-19T03:12:23.463Z,3.30
2018-01-19T03:14:49.704Z,3.30
2018-01-19T03:17:15.936Z,3.20
2018-01-19T03:19:42.183Z,3.20
2018-01-19T03:22:08.436Z,3.20
2018-01-19T03:24:35.371Z,3.20
2018-01-19T03:27:08.491Z,3.10
2018-01-19T03:29:34.700Z,3.20
2018-01-19T03:32:01.832Z,3.30
2018-01-19T03:34:28.029Z,3.30
2018-01-19T03:36:54.265Z,3.40
2018-01-19T03:39:20.500Z,3.40
2018-01-19T03:41:46.697Z,3.50
2018-01-19T03:44:12.940Z,3.50
2018-01-19T03:46:39.143Z,3.60
2018-01-19T03:49:06.137Z,3.70
2018-01-19T03:51:32.378Z,3.60
2018-01-19T03:53:58.588Z,3.70
2018-01-19T03:56:24.788Z,3.70
2018-01-19T03:58:51.051Z,3.70
2018-01-19T04:01:17.252Z,3.70
2018-01-19T04:03:43.490Z,3.70
2018-01-19T04:06:09.825Z,3.70
2018-01-19T04:08:36.068Z,3.80
2018-01-19T04:11:02.358Z,3.80
2018-01-19T04:13:29.300Z,3.70
2018-01-19T04:15:56.318Z,3.70
2018-01-19T04:18:22.549Z,3.70
2018-01-19T04:20:48.796Z,3.70
2018-01-19T04:23:15.100Z,3.70
2018-01-19T04:25:41.365Z,3.70
2018-01-19T04:28:08.303Z,3.60
2018-01-19T04:30:34.543Z,3.60
2018-01-19T04:33:01.480Z,3.60
2018-01-19T04:35:27.695Z,3.60
2018-01-19T04:37:53.953Z,3.60
2018-01-19T04:40:20.948Z,3.60
2018-01-19T04:42:47.193Z,3.60
2018-01-19T04:45:13.424Z,3.60
2018-01-19T04:47:39.627Z,3.60
2018-01-19T04:50:05.853Z,3.30
2018-01-19T04:52:32.059Z,3.00
2018-01-19T04:54:58.288Z,2.80
2018-01-19T04:57:24.578Z,2.70
2018-01-19T04:59:50.796Z,2.60
2018-01-19T05:02:17.035Z,2.60
2018-01-19T05:04:43.239Z,2.60
2018-01-19T05:07:09.481Z,2.50
2018-01-19T05:09:35.684Z,2.50
2018-01-19T05:12:01.906Z,2.40
2018-01-19T05:14:28.124Z,2.40
2018-01-19T05:16:55.096Z,2.30
2018-01-19T05:19:21.332Z,2.20
2018-01-19T05:21:47.539Z,2.20
2018-01-19T05:24:13.800Z,2.10
2018-01-19T05:26:40.040Z,2.10
2018-01-19T05:29:06.236Z,2.00
2018-01-19T05:31:32.477Z,1.90
2018-01-19T05:33:58.688Z,1.90
2018-01-19T05:36:24.933Z,1.90
2018-01-19T05:38:51.185Z,1.90
2018-01-19T05:41:17.446Z,1.90
2018-01-19T05:43:43.643Z,1.80
2018-01-19T05:46:09.883Z,1.90
2018-01-19T05:48:36.092Z,1.90
2018-01-19T05:53:46.947Z,2.00
2018-01-19T05:56:13.937Z,1.90
2018-01-19T05:58:40.137Z,1.90
2018-01-19T06:01:06.369Z,2.00
2018-01-19T06:03:32.581Z,1.90
2018-01-19T06:05:59.560Z,2.00
2018-01-19T06:08:25.801Z,1.90
2018-01-19T06:10:52.004Z,2.00
2018-01-19T06:13:18.263Z,2.00
2018-01-19T06:15:44.472Z,2.00
2018-01-19T06:18:10.722Z,2.00
2018-01-19T06:20:36.944Z,2.00
2018-01-19T06:23:03.136Z,2.10
2018-01-19T06:25:30.096Z,2.10
2018-01-19T06:27:56.295Z,2.00
2018-01-19T06:30:22.515Z,2.10
2018-01-19T06:32:48.736Z,2.10
2018-01-19T06:35:14.928Z,2.10
2018-01-19T06:37:41.153Z,2.10
2018-01-19T06:40:07.375Z,2.10
2018-01-19T06:42:33.664Z,2.10
2018-01-19T06:44:59.893Z,2.20
2018-01-19T06:47:26.096Z,2.20
2018-01-19T06:49:52.328Z,2.20
2018-01-19T06:52:18.536Z,2.30
2018-01-19T06:54:44.760Z,2.30
2018-01-19T06:57:10.981Z,2.40
2018-01-19T06:59:37.223Z,2.40
2018-01-19T07:02:03.512Z,2.50
2018-01-19T07:04:29.739Z,2.50
2018-01-19T07:06:55.944Z,2.40
2018-01-19T07:09:22.177Z,2.50
2018-01-19T07:11:48.371Z,2.50
2018-01-19T07:14:14.624Z,2.50
2018-01-19T07:16:40.852Z,2.50
2018-01-19T07:19:07.047Z,2.50
2018-01-19T07:21:33.278Z,2.40
2018-01-19T07:23:59.484Z,2.50
2018-01-19T07:26:25.703Z,2.50
2018-01-19T07:28:52.658Z,2.40
2018-01-19T07:31:18.860Z,2.40
2018-01-19T07:33:45.084Z,2.40
2018-01-19T07:36:11.285Z,2.40
2018-01-19T07:38:37.496Z,2.50
2018-01-19T07:41:04.470Z,2.50
2018-01-19T07:43:30.671Z,2.50
2018-01-19T07:45:57.680Z,2.60
2018-01-19T07:48:23.897Z,2.60
2018-01-19T07:50:50.102Z,2.70
2018-01-19T07:53:16.324Z,2.40
2018-01-19T07:55:42.522Z,2.00
2018-01-19T07:58:09.493Z,1.40
2018-01-19T08:00:35.729Z,1.30
2018-01-19T08:03:01.925Z,1.30
2018-01-19T08:05:28.143Z,1.20
2018-01-19T08:07:54.356Z,1.20
2018-01-19T08:10:20.576Z,1.20
2018-01-19T08:12:46.820Z,1.20
2018-01-19T08:15:13.039Z,1.10
2018-01-19T08:17:39.264Z,1.10
2018-01-19T08:20:05.481Z,1.10
2018-01-19T08:22:31.693Z,1.20
2018-01-19T08:24:57.915Z,1.20
2018-01-19T08:27:24.113Z,1.20
2018-01-19T08:29:50.345Z,1.30
2018-01-19T08:32:17.312Z,1.30
2018-01-19T08:34:44.248Z,1.30
2018-01-19T08:37:11.216Z,1.30
2018-01-19T08:39:38.157Z,1.30
2018-01-19T08:42:05.136Z,1.40
2018-01-19T08:44:31.368Z,1.30
2018-01-19T08:46:57.596Z,1.50
2018-01-19T08:49:23.820Z,1.50
2018-01-19T08:51:50.061Z,1.50
2018-01-19T08:54:16.293Z,1.60
2018-01-19T08:56:42.524Z,1.60
2018-01-19T08:59:08.715Z,1.60
2018-01-19T09:01:34.945Z,1.70
2018-01-19T09:04:01.152Z,1.90
2018-01-19T09:06:27.400Z,2.10
2018-01-19T09:08:54.393Z,2.40
2018-01-19T09:11:20.587Z,2.40
2018-01-19T09:13:46.834Z,2.30
2018-01-19T09:16:13.051Z,2.30
2018-01-19T09:18:39.285Z,2.30
2018-01-19T09:21:05.526Z,2.40
2018-01-19T09:23:31.755Z,2.50
2018-01-19T09:25:57.989Z,2.70
2018-01-19T09:28:24.230Z,2.90
2018-01-19T09:30:50.465Z,3.00
2018-01-19T09:33:16.705Z,3.00
2018-01-19T09:35:42.917Z,3.00
2018-01-19T09:38:09.140Z,2.90
2018-01-19T09:40:35.337Z,2.90
2018-01-19T09:43:01.564Z,3.00
2018-01-19T09:45:28.526Z,3.10
2018-01-19T09:47:54.757Z,3.10
2018-01-19T09:50:21.010Z,3.10
2018-01-19T09:52:47.215Z,3.10
2018-01-19T09:55:13.439Z,3.20
2018-01-19T09:57:39.665Z,3.30
2018-01-19T10:00:05.881Z,3.40
2018-01-19T10:02:32.849Z,3.60
2018-01-19T10:04:59.053Z,3.60
2018-01-19T10:07:26.026Z,3.60
2018-01-19T10:09:52.261Z,3.60
2018-01-19T10:12:18.503Z,3.60
2018-01-19T10:14:44.748Z,3.70
2018-01-19T10:17:10.956Z,3.70
2018-01-19T10:19:37.193Z,3.80
2018-01-19T10:22:03.427Z,3.80
2018-01-19T10:24:29.636Z,3.80
2018-01-19T10:26:55.856Z,3.80
2018-01-19T10:29:22.084Z,3.80
2018-01-19T10:31:49.105Z,4.00
2018-01-19T10:34:15.337Z,4.00
2018-01-19T10:36:41.534Z,3.90
2018-01-19T10:39:07.772Z,3.80
2018-01-19T10:41:33.967Z,3.70
2018-01-19T10:44:00.200Z,3.80
2018-01-19T10:46:26.434Z,3.90
2018-01-19T10:48:52.643Z,3.80
2018-01-19T10:51:18.867Z,3.80
2018-01-19T10:53:45.864Z,3.90
2018-01-19T10:56:12.138Z,3.90
2018-01-19T10:58:39.106Z,3.90
2018-01-19T11:01:05.304Z,3.80
2018-01-19T11:03:32.279Z,4.00
2018-01-19T11:05:58.489Z,3.90
2018-01-19T11:08:25.448Z,4.20
2018-01-19T11:10:51.675Z,4.10
2018-01-19T11:13:18.661Z,4.20
2018-01-19T11:15:44.948Z,4.10
2018-01-19T11:18:11.901Z,4.10
2018-01-19T11:20:38.877Z,4.10
2018-01-19T11:23:05.137Z,4.00
2018-01-19T11:25:31.340Z,4.10
2018-01-19T11:27:57.567Z,4.30
2018-01-19T11:30:23.797Z,4.20
2018-01-19T11:32:50.030Z,4.40
2018-01-19T11:35:16.253Z,4.60
2018-01-19T11:37:42.464Z,5.00
2018-01-19T11:40:08.684Z,4.90
2018-01-19T11:42:35.623Z,4.80
2018-01-19T11:45:04.201Z,4.90
2018-01-19T11:47:31.168Z,4.80
2018-01-19T11:49:57.408Z,4.80
2018-01-19T11:52:23.645Z,4.50
2018-01-19T11:54:49.857Z,4.30
2018-01-19T11:57:16.092Z,4.20
2018-01-19T11:59:42.355Z,4.20
2018-01-19T12:02:08.601Z,4.40
2018-01-19T12:04:34.832Z,4.50
2018-01-19T12:07:01.054Z,4.70
2018-01-19T12:09:27.289Z,5.00
2018-01-19T12:11:53.536Z,5.10
2018-01-19T12:14:19.783Z,5.30
2018-01-19T12:16:46.773Z,4.90
2018-01-19T12:19:12.974Z,4.90
2018-01-19T12:21:39.948Z,4.70
2018-01-19T12:24:06.177Z,4.60
2018-01-19T12:26:32.392Z,4.60
2018-01-19T12:28:58.616Z,4.50
2018-01-19T12:31:24.824Z,4.50
2018-01-19T12:33:51.820Z,4.50
2018-01-19T12:36:18.248Z,4.40
2018-01-19T12:38:44.463Z,4.60
2018-01-19T12:41:10.692Z,4.60
2018-01-19T12:43:36.887Z,4.50
2018-01-19T12:46:03.099Z,4.50
2018-01-19T12:48:29.312Z,4.30
2018-01-19T12:50:55.542Z,4.30
2018-01-19T12:53:21.773Z,4.40
2018-01-19T12:55:47.970Z,4.40
2018-01-19T12:58:14.188Z,4.40
2018-01-19T13:00:41.133Z,4.40
2018-01-19T13:03:08.125Z,4.50
2018-01-19T13:05:34.364Z,4.50
2018-01-19T13:08:00.681Z,4.60
2018-01-19T13:10:26.909Z,4.80
2018-01-19T13:12:53.112Z,4.80
2018-01-19T13:15:19.334Z,4.90
2018-01-19T13:17:45.547Z,4.90
2018-01-19T13:20:12.497Z,4.70
2018-01-19T13:22:39.442Z,4.70
2018-01-19T13:25:06.411Z,4.60
2018-01-19T13:27:32.612Z,4.60
2018-01-19T13:29:59.552Z,4.50
2018-01-19T13:32:25.777Z,4.40
2018-01-19T13:34:51.994Z,4.30
2018-01-19T13:37:18.236Z,4.30
2018-01-19T13:39:44.459Z,4.20
2018-01-19T13:42:10.692Z,4.20
2018-01-19T13:44:36.928Z,4.20
2018-01-19T13:47:03.131Z,4.20
2018-01-19T13:49:29.360Z,4.30
2018-01-19T13:51:55.556Z,4.30
2018-01-19T13:54:21.787Z,4.30
2018-01-19T13:56:48.013Z,4.30
2018-01-19T13:59:14.247Z,4.30
2018-01-19T14:01:40.491Z,4.40
2018-01-19T14:04:06.713Z,4.40
2018-01-19T14:06:32.940Z,4.30
2018-01-19T14:08:59.202Z,4.30
2018-01-19T14:11:25.417Z,4.20
2018-01-19T14:13:51.696Z,4.20
2018-01-19T14:16:18.689Z,4.10
2018-01-19T14:18:44.944Z,4.10
2018-01-19T14:21:11.179Z,4.20
2018-01-19T14:23:37.456Z,4.20
2018-01-19T14:26:03.717Z,4.30
2018-01-19T14:28:29.946Z,4.30
2018-01-19T14:30:56.192Z,4.30
2018-01-19T14:33:22.505Z,4.30
2018-01-19T14:35:48.760Z,4.30
2018-01-19T14:38:14.996Z,4.20
2018-01-19T14:40:42.480Z,4.30
2018-01-19T14:43:09.459Z,4.40
2018-01-19T14:45:35.695Z,4.30
2018-01-19T14:48:01.962Z,4.40
2018-01-19T14:50:28.217Z,4.40
2018-01-19T14:52:55.175Z,4.40
2018-01-19T14:55:21.455Z,4.40
2018-01-19T14:57:47.765Z,4.40
2018-01-19T15:00:14.034Z,4.50
2018-01-19T15:02:40.271Z,4.50
2018-01-19T15:05:06.485Z,4.70
2018-01-19T15:07:32.744Z,4.60
2018-01-19T15:09:58.973Z,4.40
2018-01-19T15:12:25.927Z,4.00
2018-01-19T15:14:52.904Z,3.70
2018-01-19T15:17:19.157Z,3.70
2018-01-19T15:19:45.407Z,3.50
2018-01-19T15:22:11.669Z,3.40
2018-01-19T15:24:38.657Z,2.90
2018-01-19T15:27:04.917Z,2.80
2018-01-19T15:29:31.133Z,2.70
2018-01-19T15:31:57.352Z,2.50
2018-01-19T15:34:23.579Z,2.40
2018-01-19T15:36:49.816Z,2.30
2018-01-19T15:39:16.060Z,2.20
2018-01-19T15:44:15.121Z,2.00
2018-01-19T15:46:42.100Z,1.80
2018-01-19T15:49:08.305Z,1.70
2018-01-19T15:51:34.541Z,1.70
2018-01-19T15:54:00.749Z,1.60
2018-01-19T15:56:27.710Z,1.50
2018-01-19T15:58:53.929Z,1.40
2018-01-19T16:01:20.904Z,1.50
2018-01-19T16:03:47.136Z,1.50
2018-01-19T16:06:13.387Z,1.50
2018-01-19T16:08:39.627Z,1.40
2018-01-19T16:11:05.828Z,1.30
2018-01-19T16:13:32.059Z,1.30
2018-01-19T16:15:58.289Z,1.10
2018-01-19T16:18:24.488Z,1.00
2018-01-19T16:20:51.464Z,0.70
2018-01-19T16:23:17.677Z,0.60
2018-01-19T16:25:43.940Z,0.60
2018-01-19T16:28:10.167Z,0.50
2018-01-19T16:30:36.377Z,0.40
2018-01-19T16:33:02.612Z,0.30
2018-01-19T16:35:28.824Z,0.20
2018-01-19T16:37:55.089Z,0.20
2018-01-19T16:40:21.334Z,0.00
2018-01-19T16:42:47.536Z,-0.10
2018-01-19T16:45:13.765Z,0.10
2018-01-19T16:47:39.966Z,0.20
2018-01-19T16:50:06.196Z,0.40
2018-01-19T16:52:32.416Z,0.60
2018-01-19T16:54:59.383Z,0.90
2018-01-19T16:57:25.620Z,0.80
2018-01-19T16:59:51.839Z,1.00
2018-01-19T17:02:18.083Z,1.00
2018-01-19T17:04:44.327Z,1.10
2018-01-19T17:07:10.572Z,1.20
2018-01-19T17:09:36.767Z,1.20
2018-01-19T17:12:03.001Z,1.30
2018-01-19T17:14:29.249Z,1.30
2018-01-19T17:16:55.461Z,1.40
2018-01-19T17:19:21.750Z,1.40
2018-01-19T17:21:48.026Z,1.40
2018-01-19T17:24:14.287Z,1.40
2018-01-19T17:26:40.537Z,1.40
2018-01-19T17:29:06.764Z,1.30
2018-01-19T17:31:33.021Z,1.00
2018-01-19T17:34:00.003Z,0.40
2018-01-19T17:36:26.236Z,0.40
2018-01-19T17:38:52.462Z,0.20
2018-01-19T17:41:18.673Z,0.30
2018-01-19T17:43:44.908Z,0.50
2018-01-19T17:46:11.179Z,0.50
2018-01-19T17:48:37.415Z,0.50
2018-01-19T17:51:03.616Z,0.40
2018-01-19T17:53:29.868Z,0.20
2018-01-19T17:55:56.101Z,0.10
2018-01-19T17:58:22.327Z,0.00
2018-01-19T18:00:48.566Z,-0.30
2018-01-19T18:03:14.766Z,-0.40
2018-01-19T18:05:40.992Z,-0.30
2018-01-19T18:08:07.216Z,-0.30
2018-01-19T18:10:33.419Z,-0.20
2018-01-19T18:12:59.661Z,0.10
2018-01-19T18:15:25.871Z,0.40
2018-01-19T18:17:52.827Z,0.70
2018-01-19T18:20:19.069Z,0.60
2018-01-19T18:22:45.276Z,0.70
2018-01-19T18:25:12.299Z,0.80
2018-01-19T18:27:38.509Z,0.80
2018-01-19T18:30:04.793Z,0.90
2018-01-19T18:32:31.757Z,0.70
2018-01-19T18:34:57.999Z,0.60
2018-01-19T18:37:24.265Z,0.40
2018-01-19T18:39:50.471Z,0.10
2018-01-19T18:42:16.707Z,-0.10
2018-01-19T18:44:42.949Z,-0.30
2018-01-19T18:47:09.156Z,-0.50
2018-01-19T18:49:35.391Z,-0.60
2018-01-19T18:52:01.607Z,-0.60
2018-01-19T18:54:27.816Z,-0.70
2018-01-19T18:56:54.065Z,-0.70
2018-01-19T18:59:20.270Z,-0.60
2018-01-19T19:01:46.492Z,-0.50
2018-01-19T19:04:13.457Z,-0.30
2018-01-19T19:06:39.705Z,-0.40
2018-01-19T19:09:05.954Z,-0.20
2018-01-19T19:11:32.171Z,-0.20
2018-01-19T19:13:58.397Z,0.00
2018-01-19T19:16:24.616Z,0.10
2018-01-19T19:18:50.836Z,0.20
2018-01-19T19:21:17.127Z,0.30
2018-01-19T19:23:43.388Z,0.40
2018-01-19T19:26:09.624Z,0.40
2018-01-19T19:28:35.839Z,0.50
2018-01-19T19:31:02.840Z,0.60
2018-01-19T19:33:29.153Z,0.60
2018-01-19T19:35:55.407Z,0.70
2018-01-19T19:38:21.715Z,0.70
2018-01-19T19:40:47.938Z,0.70
2018-01-19T19:43:14.168Z,0.70
2018-01-19T19:45:40.375Z,0.70
2018-01-19T19:48:06.609Z,0.70
2018-01-19T19:50:32.850Z,0.70
2018-01-19T19:52:59.061Z,0.70
2018-01-19T19:55:26.034Z,0.70
2018-01-19T19:57:52.245Z,0.70
2018-01-19T20:00:18.461Z,0.60
2018-01-19T20:02:45.434Z,0.40
2018-01-19T20:05:11.644Z,0.40
2018-01-19T20:07:38.608Z,0.60
2018-01-19T20:10:04.840Z,0.50
2018-01-19T20:12:31.086Z,0.70
2018-01-19T20:14:57.322Z,0.80
2018-01-19T20:17:23.544Z,0.80
2018-01-19T20:19:49.804Z,1.00
2018-01-19T20:22:16.054Z,1.10
2018-01-19T20:24:42.343Z,1.10
2018-01-19T20:27:08.590Z,1.30
2018-01-19T20:29:34.853Z,1.30
2018-01-19T20:32:01.869Z,1.50
2018-01-19T20:34:28.140Z,1.50
2018-01-19T20:36:55.160Z,1.70
2018-01-19T20:39:21.429Z,1.60
2018-01-19T20:41:47.656Z,1.80
2018-01-19T20:44:14.042Z,1.90
2018-01-19T20:46:40.266Z,1.90
2018-01-19T20:49:06.560Z,1.90
2018-01-19T20:51:32.829Z,1.90
2018-01-19T20:53:59.056Z,1.90
2018-01-19T20:56:25.300Z,1.90
2018-01-19T20:58:51.536Z,1.80
2018-01-19T21:01:18.537Z,1.80
2018-01-19T21:03:44.804Z,1.80
2018-01-19T21:06:11.050Z,1.80
2018-01-19T21:08:37.332Z,1.80
2018-01-19T21:11:03.558Z,1.80
2018-01-19T21:13:29.848Z,1.80
2018-01-19T21:15:56.805Z,1.80
2018-01-19T21:18:23.889Z,1.80
2018-01-19T21:20:50.128Z,1.70
2018-01-19T21:23:16.366Z,1.80
2018-01-19T21:25:42.597Z,1.80
2018-01-19T21:28:08.876Z,1.80
2018-01-19T21:30:35.844Z,1.70
2018-01-19T21:33:02.134Z,1.70
2018-01-19T21:35:28.401Z,1.90
2018-01-19T21:37:54.670Z,1.90
2018-01-19T21:40:20.971Z,1.90
2018-01-19T21:42:47.194Z,1.90
2018-01-19T21:45:13.548Z,1.90
2018-01-19T21:47:39.791Z,1.90
2018-01-19T21:50:06.031Z,1.90
2018-01-19T21:52:32.300Z,2.00
2018-01-19T21:54:59.276Z,1.90
2018-01-19T21:57:25.510Z,1.90
2018-01-19T21:59:51.764Z,1.90
2018-01-19T22:02:18.032Z,1.90
2018-01-19T22:04:44.413Z,1.80
2018-01-19T22:07:10.636Z,1.70
2018-01-19T22:09:36.907Z,1.60
2018-01-19T22:12:03.181Z,1.50
2018-01-19T22:14:29.401Z,1.40
2018-01-19T22:16:56.384Z,1.30
2018-01-19T22:19:22.599Z,1.20
2018-01-19T22:21:48.889Z,1.30
2018-01-19T22:24:15.912Z,1.20
2018-01-19T22:26:42.179Z,1.20
2018-01-19T22:29:09.167Z,1.20
2018-01-19T22:31:35.384Z,1.20
2018-01-19T22:34:01.633Z,1.20
2018-01-19T22:36:27.862Z,1.20
2018-01-19T22:38:54.126Z,1.20
2018-01-19T22:41:22.455Z,1.10
2018-01-19T22:43:48.681Z,1.10
2018-01-19T22:46:14.940Z,1.10
2018-01-19T22:48:41.171Z,1.00
2018-01-19T22:51:07.385Z,1.00
2018-01-19T22:53:33.616Z,1.00
2018-01-19T22:55:59.825Z,1.00
2018-01-19T22:58:26.053Z,1.00
2018-01-19T23:00:52.280Z,1.00
2018-01-19T23:03:18.480Z,1.00
2018-01-19T23:05:44.691Z,1.10
2018-01-19T23:08:10.908Z,1.10
2018-01-19T23:10:37.156Z,1.10
2018-01-19T23:13:03.357Z,1.10
2018-01-19T23:15:29.597Z,1.10
2018-01-19T23:17:55.824Z,1.10
2018-01-19T23:20:22.025Z,1.10
2018-01-19T23:22:48.248Z,1.10
2018-01-19T23:25:14.445Z,1.20
2018-01-19T23:27:40.669Z,1.30
2018-01-19T23:30:07.611Z,1.40
2018-01-19T23:32:33.881Z,1.30
2018-01-19T23:35:00.839Z,1.40
2018-01-19T23:37:27.048Z,1.30
2018-01-19T23:39:53.338Z,1.30
2018-01-19T23:42:19.544Z,1.30
2018-01-19T23:44:45.780Z,1.20
2018-01-19T23:47:12.017Z,1.10
2018-01-19T23:49:38.232Z,1.00
2018-01-19T23:52:04.464Z,1.00
2018-01-19T23:54:30.669Z,0.90
2018-01-19T23:56:56.888Z,0.80
2018-01-19T23:59:23.857Z,0.90
